BAW836J EGSS-EGPH
Flight info
| Callsign | BAW836J |
|---|---|
| Flight time | 0h 55m |
| Altitude | 32000 |
| Route | UTAVA Q75 BUZAD T420 TNT UN57 POL UN601 RIBEL DCT INPIP |
| Aircraft | A321/M-SDE3FGHIRWY/LB1 |
Departure
| Time | 2026-04-25 08:09 |
|---|---|
| Airport | London Stansted Airport (EGSS) |
Arrival
| Time | 2026-04-25 09:04 |
|---|---|
| Airport | Edinburgh Airport (EGPH) |
| Time | Latitude | Longitude | Altitude | Speed | Heading |
|---|---|---|---|---|---|
| 2026-04-25 07:51 | 51.89218 | 0.25701 | 351 ft | 0 kts | 223° |
| 2026-04-25 08:01 | 51.89220 | 0.25706 | 356 ft | 2 kts | 224° |
| 2026-04-25 08:01 | 51.89233 | 0.25728 | 355 ft | 3 kts | 238° |
| 2026-04-25 08:01 | 51.89242 | 0.25756 | 350 ft | 3 kts | 261° |
| 2026-04-25 08:01 | 51.89241 | 0.25785 | 356 ft | 3 kts | 299° |
| 2026-04-25 08:02 | 51.89236 | 0.25799 | 351 ft | 1 kts | 313° |
| 2026-04-25 08:02 | 51.89234 | 0.25802 | 351 ft | 1 kts | 313° |
| 2026-04-25 08:05 | 51.89264 | 0.25749 | 352 ft | 12 kts | 313° |
| 2026-04-25 08:05 | 51.89311 | 0.25668 | 347 ft | 16 kts | 313° |
| 2026-04-25 08:06 | 51.89410 | 0.25497 | 350 ft | 21 kts | 306° |
| 2026-04-25 08:06 | 51.89372 | 0.25353 | 346 ft | 12 kts | 220° |
| 2026-04-25 08:06 | 51.89369 | 0.25238 | 350 ft | 12 kts | 307° |
| 2026-04-25 08:06 | 51.89426 | 0.25135 | 346 ft | 4 kts | 316° |
| 2026-04-25 08:07 | 51.89433 | 0.25123 | 345 ft | 3 kts | 315° |
| 2026-04-25 08:07 | 51.89491 | 0.25020 | 334 ft | 21 kts | 297° |
| 2026-04-25 08:07 | 51.89462 | 0.24913 | 336 ft | 4 kts | 201° |
| 2026-04-25 08:07 | 51.89459 | 0.24910 | 337 ft | 0 kts | 206° |
| 2026-04-25 08:08 | 51.89445 | 0.24896 | 334 ft | 5 kts | 214° |
| 2026-04-25 08:08 | 51.89311 | 0.24693 | 334 ft | 63 kts | 223° |
| 2026-04-25 08:08 | 51.88811 | 0.23944 | 336 ft | 133 kts | 223° |
| 2026-04-25 08:09 | 51.88008 | 0.22747 | 597 ft | 166 kts | 222° |
| 2026-04-25 08:09 | 51.87166 | 0.21489 | 1464 ft | 165 kts | 222° |
| 2026-04-25 08:09 | 51.86293 | 0.20187 | 1996 ft | 175 kts | 223° |
| 2026-04-25 08:09 | 51.85393 | 0.18831 | 2177 ft | 188 kts | 223° |
| 2026-04-25 08:10 | 51.84375 | 0.17297 | 2486 ft | 210 kts | 223° |
| 2026-04-25 08:10 | 51.83350 | 0.15444 | 2711 ft | 233 kts | 244° |
| 2026-04-25 08:10 | 51.83127 | 0.12772 | 3045 ft | 253 kts | 284° |
| 2026-04-25 08:10 | 51.84008 | 0.10346 | 3680 ft | 260 kts | 320° |
| 2026-04-25 08:11 | 51.85616 | 0.08980 | 3955 ft | 263 kts | 345° |
| 2026-04-25 08:11 | 51.87417 | 0.08458 | 4005 ft | 262 kts | 354° |
| 2026-04-25 08:11 | 51.89237 | 0.08211 | 4011 ft | 262 kts | 356° |
| 2026-04-25 08:11 | 51.91079 | 0.07973 | 4510 ft | 265 kts | 355° |
| 2026-04-25 08:12 | 51.92885 | 0.07624 | 5352 ft | 260 kts | 348° |
| 2026-04-25 08:12 | 51.94539 | 0.06522 | 5499 ft | 258 kts | 325° |
| 2026-04-25 08:12 | 51.95806 | 0.04462 | 5622 ft | 259 kts | 303° |
| 2026-04-25 08:12 | 51.96544 | 0.01816 | 5743 ft | 257 kts | 286° |
| 2026-04-25 08:13 | 51.97015 | -0.01045 | 6070 ft | 269 kts | 284° |
| 2026-04-25 08:13 | 51.97486 | -0.04009 | 6808 ft | 273 kts | 284° |
| 2026-04-25 08:13 | 51.97858 | -0.07008 | 7521 ft | 276 kts | 274° |
| 2026-04-25 08:14 | 51.97501 | -0.13246 | 9018 ft | 281 kts | 263° |
| 2026-04-25 08:14 | 51.97253 | -0.16403 | 9776 ft | 283 kts | 263° |
| 2026-04-25 08:14 | 51.97009 | -0.19589 | 10423 ft | 290 kts | 263° |
| 2026-04-25 08:14 | 51.96751 | -0.22962 | 10591 ft | 313 kts | 263° |
| 2026-04-25 08:15 | 51.96474 | -0.26587 | 10765 ft | 332 kts | 263° |
| 2026-04-25 08:15 | 51.96186 | -0.30351 | 11274 ft | 339 kts | 263° |
| 2026-04-25 08:15 | 51.95891 | -0.34175 | 11880 ft | 343 kts | 263° |
| 2026-04-25 08:15 | 51.95587 | -0.38036 | 12502 ft | 347 kts | 263° |
| 2026-04-25 08:16 | 51.95277 | -0.41937 | 13128 ft | 350 kts | 263° |
| 2026-04-25 08:16 | 51.94976 | -0.45832 | 13734 ft | 354 kts | 265° |
| 2026-04-25 08:16 | 51.95065 | -0.49830 | 14290 ft | 358 kts | 280° |
| 2026-04-25 08:16 | 51.95804 | -0.53689 | 14849 ft | 361 kts | 295° |
| 2026-04-25 08:17 | 51.97150 | -0.57135 | 15417 ft | 364 kts | 310° |
| 2026-04-25 08:17 | 51.99026 | -0.59895 | 15983 ft | 367 kts | 325° |
| 2026-04-25 08:17 | 52.01215 | -0.62071 | 16555 ft | 370 kts | 328° |
| 2026-04-25 08:17 | 52.03434 | -0.64231 | 17106 ft | 372 kts | 328° |
| 2026-04-25 08:18 | 52.05658 | -0.66404 | 17675 ft | 375 kts | 328° |
| 2026-04-25 08:18 | 52.07905 | -0.68611 | 18199 ft | 378 kts | 327° |
| 2026-04-25 08:18 | 52.10164 | -0.70833 | 18712 ft | 381 kts | 327° |
| 2026-04-25 08:18 | 52.12439 | -0.73076 | 19185 ft | 383 kts | 327° |
| 2026-04-25 08:19 | 52.14727 | -0.75335 | 19648 ft | 386 kts | 327° |
| 2026-04-25 08:19 | 52.17025 | -0.77604 | 20108 ft | 388 kts | 327° |
| 2026-04-25 08:19 | 52.19345 | -0.79894 | 20559 ft | 390 kts | 327° |
| 2026-04-25 08:19 | 52.21667 | -0.82189 | 21020 ft | 392 kts | 327° |
| 2026-04-25 08:20 | 52.24009 | -0.84506 | 21477 ft | 394 kts | 327° |
| 2026-04-25 08:20 | 52.26364 | -0.86840 | 21930 ft | 397 kts | 327° |
| 2026-04-25 08:20 | 52.28728 | -0.89187 | 22366 ft | 399 kts | 327° |
| 2026-04-25 08:20 | 52.31112 | -0.91558 | 22787 ft | 402 kts | 327° |
| 2026-04-25 08:21 | 52.33511 | -0.93949 | 23228 ft | 404 kts | 327° |
| 2026-04-25 08:21 | 52.35884 | -0.96322 | 23678 ft | 406 kts | 327° |
| 2026-04-25 08:21 | 52.38302 | -0.98744 | 24059 ft | 408 kts | 327° |
| 2026-04-25 08:21 | 52.40734 | -1.01177 | 24386 ft | 411 kts | 326° |
| 2026-04-25 08:22 | 52.43195 | -1.03639 | 24687 ft | 415 kts | 326° |
| 2026-04-25 08:22 | 52.45673 | -1.06120 | 25025 ft | 418 kts | 326° |
| 2026-04-25 08:22 | 52.48166 | -1.08622 | 25370 ft | 420 kts | 326° |
| 2026-04-25 08:22 | 52.50637 | -1.11105 | 25712 ft | 423 kts | 326° |
| 2026-04-25 08:23 | 52.53148 | -1.13630 | 26052 ft | 425 kts | 326° |
| 2026-04-25 08:23 | 52.55672 | -1.16174 | 26405 ft | 427 kts | 326° |
| 2026-04-25 08:23 | 52.58219 | -1.18744 | 26751 ft | 429 kts | 326° |
| 2026-04-25 08:23 | 52.60771 | -1.21319 | 27076 ft | 432 kts | 326° |
| 2026-04-25 08:24 | 52.62468 | -1.23034 | 27295 ft | 433 kts | 326° |
| 2026-04-25 08:24 | 52.65054 | -1.25647 | 27614 ft | 435 kts | 326° |
| 2026-04-25 08:24 | 52.67638 | -1.28260 | 27953 ft | 438 kts | 326° |
| 2026-04-25 08:24 | 52.70243 | -1.30899 | 28280 ft | 440 kts | 326° |
| 2026-04-25 08:25 | 52.72857 | -1.33558 | 28610 ft | 442 kts | 326° |
| 2026-04-25 08:25 | 52.75488 | -1.36239 | 28985 ft | 445 kts | 326° |
| 2026-04-25 08:25 | 52.78124 | -1.38928 | 29330 ft | 446 kts | 326° |
| 2026-04-25 08:25 | 52.80741 | -1.41606 | 29658 ft | 448 kts | 326° |
| 2026-04-25 08:26 | 52.83398 | -1.44330 | 29960 ft | 450 kts | 326° |
| 2026-04-25 08:26 | 52.86065 | -1.47066 | 30242 ft | 452 kts | 326° |
| 2026-04-25 08:26 | 52.88744 | -1.49820 | 30493 ft | 454 kts | 326° |
| 2026-04-25 08:26 | 52.91431 | -1.52582 | 30705 ft | 456 kts | 326° |
| 2026-04-25 08:27 | 52.94144 | -1.55373 | 30851 ft | 460 kts | 326° |
| 2026-04-25 08:27 | 52.96876 | -1.58189 | 31033 ft | 462 kts | 326° |
| 2026-04-25 08:27 | 52.99602 | -1.61001 | 31342 ft | 461 kts | 326° |
| 2026-04-25 08:27 | 53.02325 | -1.63814 | 31678 ft | 460 kts | 326° |
| 2026-04-25 08:28 | 53.05076 | -1.66519 | 32002 ft | 460 kts | 330° |
| 2026-04-25 08:28 | 53.08022 | -1.68631 | 32311 ft | 462 kts | 337° |
| 2026-04-25 08:28 | 53.11035 | -1.70484 | 32513 ft | 463 kts | 337° |
| 2026-04-25 08:28 | 53.14053 | -1.72341 | 32276 ft | 462 kts | 337° |
| 2026-04-25 08:29 | 53.17059 | -1.74199 | 32201 ft | 461 kts | 337° |
| 2026-04-25 08:29 | 53.23028 | -1.77911 | 32222 ft | 449 kts | 337° |
| 2026-04-25 08:30 | 53.28834 | -1.81538 | 32220 ft | 444 kts | 337° |
| 2026-04-25 08:30 | 53.34581 | -1.85141 | 32226 ft | 443 kts | 337° |
| 2026-04-25 08:31 | 53.40377 | -1.88779 | 32223 ft | 443 kts | 337° |
| 2026-04-25 08:31 | 53.46121 | -1.92388 | 32224 ft | 443 kts | 337° |
| 2026-04-25 08:32 | 53.51914 | -1.96037 | 32231 ft | 443 kts | 337° |
| 2026-04-25 08:32 | 53.57704 | -1.99703 | 32232 ft | 443 kts | 337° |
| 2026-04-25 08:33 | 53.63476 | -2.03375 | 32231 ft | 443 kts | 337° |
| 2026-04-25 08:33 | 53.69223 | -2.07028 | 32232 ft | 443 kts | 337° |
| 2026-04-25 08:34 | 53.74997 | -2.10715 | 32234 ft | 444 kts | 337° |
| 2026-04-25 08:34 | 53.80751 | -2.14561 | 32220 ft | 445 kts | 335° |
| 2026-04-25 08:35 | 53.86482 | -2.18540 | 32213 ft | 445 kts | 335° |
| 2026-04-25 08:35 | 53.92227 | -2.22522 | 32215 ft | 446 kts | 335° |
| 2026-04-25 08:36 | 53.97943 | -2.26446 | 32230 ft | 446 kts | 336° |
| 2026-04-25 08:36 | 54.00861 | -2.28446 | 32044 ft | 446 kts | 336° |
| 2026-04-25 08:36 | 54.03703 | -2.30398 | 31794 ft | 446 kts | 335° |
| 2026-04-25 08:36 | 54.06578 | -2.32375 | 31548 ft | 444 kts | 335° |
| 2026-04-25 08:37 | 54.09440 | -2.34352 | 31288 ft | 443 kts | 335° |
| 2026-04-25 08:37 | 54.12291 | -2.36326 | 31034 ft | 441 kts | 335° |
| 2026-04-25 08:37 | 54.15123 | -2.38288 | 30788 ft | 439 kts | 335° |
| 2026-04-25 08:37 | 54.17951 | -2.40251 | 30542 ft | 437 kts | 335° |
| 2026-04-25 08:38 | 54.20761 | -2.42210 | 30291 ft | 435 kts | 335° |
| 2026-04-25 08:38 | 54.23570 | -2.44172 | 30008 ft | 433 kts | 335° |
| 2026-04-25 08:38 | 54.26308 | -2.46088 | 29741 ft | 430 kts | 335° |
| 2026-04-25 08:38 | 54.29068 | -2.48020 | 29464 ft | 427 kts | 335° |
| 2026-04-25 08:39 | 54.31812 | -2.49939 | 29181 ft | 425 kts | 335° |
| 2026-04-25 08:39 | 54.34554 | -2.51854 | 28906 ft | 423 kts | 335° |
| 2026-04-25 08:39 | 54.37275 | -2.53759 | 28634 ft | 421 kts | 335° |
| 2026-04-25 08:39 | 54.39977 | -2.55655 | 28363 ft | 419 kts | 335° |
| 2026-04-25 08:40 | 54.42671 | -2.57551 | 28093 ft | 417 kts | 335° |
| 2026-04-25 08:40 | 54.45362 | -2.59448 | 27827 ft | 416 kts | 335° |
| 2026-04-25 08:40 | 54.48035 | -2.61333 | 27570 ft | 414 kts | 335° |
| 2026-04-25 08:40 | 54.50686 | -2.63203 | 27310 ft | 411 kts | 335° |
| 2026-04-25 08:41 | 54.53300 | -2.65052 | 27051 ft | 409 kts | 336° |
| 2026-04-25 08:41 | 54.55926 | -2.66911 | 26796 ft | 407 kts | 336° |
| 2026-04-25 08:41 | 54.58545 | -2.68771 | 26546 ft | 406 kts | 336° |
| 2026-04-25 08:41 | 54.61161 | -2.70633 | 26281 ft | 407 kts | 336° |
| 2026-04-25 08:42 | 54.63783 | -2.72502 | 26062 ft | 407 kts | 336° |
| 2026-04-25 08:42 | 54.66393 | -2.74364 | 25801 ft | 406 kts | 336° |
| 2026-04-25 08:42 | 54.68997 | -2.76222 | 25555 ft | 404 kts | 336° |
| 2026-04-25 08:42 | 54.71597 | -2.78075 | 25313 ft | 402 kts | 336° |
| 2026-04-25 08:43 | 54.74146 | -2.79900 | 25083 ft | 400 kts | 336° |
| 2026-04-25 08:43 | 54.76709 | -2.81741 | 24841 ft | 398 kts | 336° |
| 2026-04-25 08:43 | 54.79297 | -2.83602 | 24597 ft | 397 kts | 336° |
| 2026-04-25 08:43 | 54.81811 | -2.85409 | 24368 ft | 395 kts | 336° |
| 2026-04-25 08:44 | 54.84343 | -2.87233 | 24142 ft | 394 kts | 336° |
| 2026-04-25 08:44 | 54.86872 | -2.89056 | 23907 ft | 392 kts | 336° |
| 2026-04-25 08:44 | 54.89395 | -2.90871 | 23655 ft | 391 kts | 336° |
| 2026-04-25 08:44 | 54.91905 | -2.92676 | 23378 ft | 389 kts | 336° |
| 2026-04-25 08:45 | 54.94406 | -2.94483 | 23106 ft | 388 kts | 336° |
| 2026-04-25 08:45 | 54.96889 | -2.96284 | 22834 ft | 386 kts | 336° |
| 2026-04-25 08:45 | 54.99366 | -2.98081 | 22569 ft | 383 kts | 336° |
| 2026-04-25 08:45 | 55.01818 | -2.99861 | 22303 ft | 380 kts | 336° |
| 2026-04-25 08:46 | 55.04256 | -3.01631 | 22040 ft | 379 kts | 336° |
| 2026-04-25 08:46 | 55.06680 | -3.03395 | 21779 ft | 377 kts | 336° |
| 2026-04-25 08:46 | 55.09094 | -3.05160 | 21473 ft | 376 kts | 336° |
| 2026-04-25 08:46 | 55.11499 | -3.06921 | 20962 ft | 373 kts | 336° |
| 2026-04-25 08:47 | 55.13851 | -3.08641 | 20445 ft | 370 kts | 336° |
| 2026-04-25 08:47 | 55.16218 | -3.10372 | 19802 ft | 369 kts | 336° |
| 2026-04-25 08:47 | 55.18623 | -3.12134 | 18854 ft | 379 kts | 336° |
| 2026-04-25 08:47 | 55.21033 | -3.13901 | 17879 ft | 369 kts | 336° |
| 2026-04-25 08:48 | 55.23353 | -3.15604 | 17022 ft | 354 kts | 336° |
| 2026-04-25 08:48 | 55.25565 | -3.17226 | 16543 ft | 332 kts | 336° |
| 2026-04-25 08:48 | 55.27633 | -3.18741 | 16041 ft | 313 kts | 337° |
| 2026-04-25 08:48 | 55.29679 | -3.19819 | 15796 ft | 308 kts | 349° |
| 2026-04-25 08:49 | 55.31814 | -3.20113 | 15542 ft | 309 kts | 1° |
| 2026-04-25 08:49 | 55.33956 | -3.19802 | 15304 ft | 310 kts | 4° |
| 2026-04-25 08:49 | 55.36099 | -3.19462 | 14995 ft | 308 kts | 4° |
| 2026-04-25 08:49 | 55.38238 | -3.19124 | 14499 ft | 309 kts | 4° |
| 2026-04-25 08:50 | 55.40369 | -3.18787 | 14127 ft | 305 kts | 4° |
| 2026-04-25 08:50 | 55.42499 | -3.18452 | 13601 ft | 306 kts | 4° |
| 2026-04-25 08:50 | 55.44588 | -3.18121 | 13010 ft | 298 kts | 4° |
| 2026-04-25 08:50 | 55.46627 | -3.17799 | 12365 ft | 291 kts | 4° |
| 2026-04-25 08:51 | 55.48647 | -3.17486 | 11869 ft | 291 kts | 3° |
| 2026-04-25 08:51 | 55.50634 | -3.17176 | 11364 ft | 289 kts | 3° |
| 2026-04-25 08:51 | 55.52626 | -3.16862 | 10865 ft | 287 kts | 3° |
| 2026-04-25 08:51 | 55.54646 | -3.16546 | 10372 ft | 288 kts | 3° |
| 2026-04-25 08:52 | 55.56622 | -3.16238 | 9910 ft | 288 kts | 3° |
| 2026-04-25 08:52 | 55.58601 | -3.15926 | 9366 ft | 284 kts | 3° |
| 2026-04-25 08:52 | 55.60551 | -3.15619 | 8853 ft | 282 kts | 3° |
| 2026-04-25 08:52 | 55.62514 | -3.15313 | 8407 ft | 282 kts | 3° |
| 2026-04-25 08:53 | 55.64464 | -3.15005 | 7966 ft | 282 kts | 4° |
| 2026-04-25 08:53 | 55.66407 | -3.14694 | 7671 ft | 275 kts | 4° |
| 2026-04-25 08:53 | 55.68262 | -3.14414 | 7518 ft | 259 kts | 360° |
| 2026-04-25 08:53 | 55.69981 | -3.14912 | 7181 ft | 245 kts | 336° |
| 2026-04-25 08:54 | 55.71409 | -3.16473 | 7131 ft | 246 kts | 316° |
| 2026-04-25 08:54 | 55.72439 | -3.18872 | 7044 ft | 246 kts | 295° |
| 2026-04-25 08:54 | 55.72978 | -3.21741 | 6919 ft | 246 kts | 286° |
| 2026-04-25 08:54 | 55.73438 | -3.24663 | 6786 ft | 245 kts | 286° |
| 2026-04-25 08:55 | 55.73896 | -3.27579 | 6640 ft | 245 kts | 286° |
| 2026-04-25 08:55 | 55.74352 | -3.30485 | 6511 ft | 243 kts | 286° |
| 2026-04-25 08:55 | 55.74803 | -3.33364 | 6370 ft | 243 kts | 286° |
| 2026-04-25 08:55 | 55.75255 | -3.36244 | 6232 ft | 241 kts | 286° |
| 2026-04-25 08:56 | 55.75705 | -3.39107 | 5979 ft | 242 kts | 286° |
| 2026-04-25 08:56 | 55.76147 | -3.41927 | 5756 ft | 236 kts | 286° |
| 2026-04-25 08:56 | 55.76587 | -3.44746 | 5597 ft | 237 kts | 286° |
| 2026-04-25 08:56 | 55.77026 | -3.47567 | 5460 ft | 236 kts | 286° |
| 2026-04-25 08:57 | 55.77466 | -3.50397 | 5319 ft | 239 kts | 286° |
| 2026-04-25 08:57 | 55.77912 | -3.53252 | 5187 ft | 240 kts | 286° |
| 2026-04-25 08:57 | 55.78353 | -3.56077 | 5048 ft | 240 kts | 286° |
| 2026-04-25 08:57 | 55.78796 | -3.58930 | 4912 ft | 239 kts | 285° |
| 2026-04-25 08:58 | 55.79236 | -3.61778 | 4768 ft | 239 kts | 286° |
| 2026-04-25 08:58 | 55.79669 | -3.64588 | 4653 ft | 230 kts | 286° |
| 2026-04-25 08:58 | 55.80147 | -3.67215 | 4540 ft | 219 kts | 300° |
| 2026-04-25 08:58 | 55.81190 | -3.69163 | 4298 ft | 220 kts | 332° |
| 2026-04-25 08:59 | 55.82625 | -3.69728 | 4184 ft | 210 kts | 3° |
| 2026-04-25 08:59 | 55.83984 | -3.68857 | 4038 ft | 211 kts | 35° |
| 2026-04-25 08:59 | 55.84918 | -3.66843 | 3825 ft | 212 kts | 57° |
| 2026-04-25 08:59 | 55.85665 | -3.64631 | 3567 ft | 203 kts | 58° |
| 2026-04-25 09:00 | 55.86374 | -3.62542 | 3287 ft | 196 kts | 58° |
| 2026-04-25 09:00 | 55.87067 | -3.60515 | 3047 ft | 185 kts | 58° |
| 2026-04-25 09:00 | 55.87714 | -3.58624 | 2794 ft | 171 kts | 59° |
| 2026-04-25 09:00 | 55.88304 | -3.56901 | 2570 ft | 154 kts | 59° |
| 2026-04-25 09:01 | 55.88841 | -3.55331 | 2363 ft | 144 kts | 60° |
| 2026-04-25 09:01 | 55.89351 | -3.53839 | 2173 ft | 139 kts | 60° |
| 2026-04-25 09:01 | 55.89846 | -3.52390 | 1986 ft | 135 kts | 61° |
| 2026-04-25 09:01 | 55.90332 | -3.50967 | 1799 ft | 133 kts | 60° |
| 2026-04-25 09:02 | 55.90809 | -3.49568 | 1613 ft | 133 kts | 61° |
| 2026-04-25 09:02 | 55.91288 | -3.48163 | 1433 ft | 132 kts | 62° |
| 2026-04-25 09:02 | 55.91761 | -3.46774 | 1244 ft | 131 kts | 62° |
| 2026-04-25 09:02 | 55.92237 | -3.45377 | 1054 ft | 131 kts | 61° |
| 2026-04-25 09:03 | 55.92712 | -3.43979 | 861 ft | 137 kts | 61° |
| 2026-04-25 09:03 | 55.93238 | -3.42440 | 686 ft | 140 kts | 61° |
| 2026-04-25 09:03 | 55.93719 | -3.40983 | 423 ft | 132 kts | 64° |
| 2026-04-25 09:03 | 55.94199 | -3.39600 | 258 ft | 131 kts | 61° |
| 2026-04-25 09:04 | 55.94666 | -3.38230 | 123 ft | 125 kts | 61° |
| 2026-04-25 09:04 | 55.95048 | -3.37079 | 108 ft | 87 kts | 60° |
| 2026-04-25 09:04 | 55.95329 | -3.36237 | 100 ft | 67 kts | 59° |
| 2026-04-25 09:04 | 55.95525 | -3.35707 | 102 ft | 34 kts | 63° |
| 2026-04-25 09:05 | 55.95481 | -3.35422 | 103 ft | 20 kts | 145° |
| 2026-04-25 09:05 | 55.95466 | -3.35406 | 103 ft | 0 kts | 149° |
| 2026-04-25 09:05 | 55.95459 | -3.35398 | 104 ft | 5 kts | 149° |
| 2026-04-25 09:06 | 55.95430 | -3.35413 | 105 ft | 5 kts | 234° |
| 2026-04-25 09:06 | 55.95406 | -3.35477 | 105 ft | 10 kts | 237° |
| 2026-04-25 09:06 | 55.95345 | -3.35659 | 103 ft | 24 kts | 239° |
| 2026-04-25 09:06 | 55.95251 | -3.35935 | 101 ft | 27 kts | 240° |
| 2026-04-25 09:07 | 55.95151 | -3.36227 | 103 ft | 28 kts | 240° |
| 2026-04-25 09:07 | 55.95056 | -3.36388 | 107 ft | 16 kts | 184° |
| 2026-04-25 09:07 | 55.94983 | -3.36489 | 106 ft | 9 kts | 214° |
| 2026-04-25 09:07 | 55.94946 | -3.36459 | 105 ft | 7 kts | 145° |
| 2026-04-25 09:08 | 55.94930 | -3.36440 | 106 ft | 0 kts | 147° |